Time,TemperatureF,DewpointF,PressureIn,WindDirection,WindDirectionDegrees,WindSpeedMPH,WindSpeedGustMPH,Humidity,HourlyPrecipIn,Conditions,Clouds,dailyrainin,SolarRadiationWatts/m^2,SoftwareType,DateUTC
2013-01-11 01:00:00,33.0,32.0,-100.00,ESE,112,12.0,-999.0,95,0.13,,,-99.99,0.000000,,2013-01-11 06:00:00,
2013-01-11 01:42:00,33.0,32.0,-100.00,ESE,112,12.0,-999.0,95,0.13,,,-99.99,0.000000,,2013-01-11 06:42:00,
2013-01-11 01:52:00,33.0,32.0,-100.00,ESE,112,12.0,-999.0,95,0.13,,,-99.99,0.000000,,2013-01-11 06:52:00,
2013-01-11 02:00:00,33.0,32.0,-100.00,ESE,112,11.0,-999.0,96,0.13,,,-99.99,0.000000,,2013-01-11 07:00:00,
2013-01-11 02:42:00,33.0,32.0,-100.00,ESE,112,11.0,-999.0,96,0.13,,,-99.99,0.000000,,2013-01-11 07:42:00,
2013-01-11 02:53:00,33.0,32.0,-100.00,ESE,112,11.0,-999.0,96,0.13,,,-99.99,0.000000,,2013-01-11 07:53:00,
2013-01-11 03:00:00,34.0,33.0,-100.00,ESE,112,10.0,-999.0,97,0.08,,,-99.99,0.000000,,2013-01-11 08:00:00,
2013-01-11 03:42:00,34.0,33.0,-100.00,ESE,112,10.0,-999.0,97,0.08,,,-99.99,0.000000,,2013-01-11 08:42:00,
2013-01-11 03:53:00,34.0,33.0,-100.00,ESE,112,10.0,-999.0,97,0.08,,,-99.99,0.000000,,2013-01-11 08:53:00,
2013-01-11 04:00:00,35.0,34.0,-100.00,SE,135,11.0,-999.0,97,0.01,,,-99.99,0.000000,,2013-01-11 09:00:00,
2013-01-11 04:42:00,35.0,34.0,-100.00,SE,135,11.0,-999.0,97,0.01,,,-99.99,0.000000,,2013-01-11 09:42:00,
2013-01-11 04:52:00,35.0,34.0,-100.00,SE,135,11.0,-999.0,97,0.01,,,-99.99,0.000000,,2013-01-11 09:52:00,
2013-01-11 05:00:00,35.0,35.0,-100.00,SE,135,9.0,-999.0,97,0.01,,,-99.99,0.000000,,2013-01-11 10:00:00,
2013-01-11 05:43:00,35.0,35.0,-100.00,SE,135,9.0,-999.0,97,0.01,,,-99.99,0.000000,,2013-01-11 10:43:00,
2013-01-11 05:53:00,35.0,35.0,-100.00,SE,135,9.0,-999.0,97,0.01,,,-99.99,0.000000,,2013-01-11 10:53:00,
2013-01-11 06:00:00,35.0,35.0,-100.00,SE,135,8.0,-999.0,98,0.04,,,-99.99,0.000000,,2013-01-11 11:00:00,
2013-01-11 06:43:00,35.0,35.0,-100.00,SE,135,8.0,-999.0,98,0.04,,,-99.99,0.000000,,2013-01-11 11:43:00,
2013-01-11 06:53:00,35.0,35.0,-100.00,SE,135,8.0,-999.0,98,0.04,,,-99.99,0.000000,,2013-01-11 11:53:00,
2013-01-11 07:00:00,36.0,35.0,-100.00,ESE,112,7.0,-999.0,98,-99.99,,,-99.99,0.000000,,2013-01-11 12:00:00,
2013-01-11 07:43:00,36.0,35.0,-100.00,ESE,112,7.0,-999.0,98,-99.99,,,-99.99,0.000000,,2013-01-11 12:43:00,
2013-01-11 07:53:00,36.0,35.0,-100.00,ESE,112,7.0,-999.0,98,-99.99,,,-99.99,0.000000,,2013-01-11 12:53:00,
2013-01-11 08:00:00,37.0,36.0,-100.00,ESE,112,7.0,-999.0,98,0.01,,,-99.99,0.000000,,2013-01-11 13:00:00,
2013-01-11 08:43:00,37.0,36.0,-100.00,ESE,112,7.0,-999.0,98,0.01,,,-99.99,0.000000,,2013-01-11 13:43:00,
2013-01-11 08:53:00,37.0,36.0,-100.00,ESE,112,7.0,-999.0,98,0.01,,,-99.99,0.000000,,2013-01-11 13:53:00,
2013-01-11 09:00:00,37.0,37.0,-100.00,SE,135,5.0,-999.0,98,-99.99,,,-99.99,2.320000,,2013-01-11 14:00:00,
2013-01-11 09:43:00,37.0,37.0,-100.00,SE,135,5.0,-999.0,98,-99.99,,,-99.99,2.320000,,2013-01-11 14:43:00,
2013-01-11 09:53:00,37.0,37.0,-100.00,SE,135,5.0,-999.0,98,-99.99,,,-99.99,2.320000,,2013-01-11 14:53:00,
2013-01-11 11:00:00,41.0,41.0,-100.00,SSE,157,6.0,-999.0,98,0.01,,,-99.99,33.639999,,2013-01-11 16:00:00,
2013-01-11 11:43:00,41.0,41.0,-100.00,SSE,157,6.0,-999.0,98,0.01,,,-99.99,33.639999,,2013-01-11 16:43:00,
2013-01-11 11:53:00,41.0,41.0,-100.00,SSE,157,6.0,-999.0,98,0.01,,,-99.99,33.639999,,2013-01-11 16:53:00,
2013-01-11 12:00:00,43.0,43.0,-100.00,SSE,157,5.0,-999.0,98,0.01,,,-99.99,41.759998,,2013-01-11 17:00:00,
2013-01-11 12:43:00,43.0,43.0,-100.00,SSE,157,5.0,-999.0,98,0.01,,,-99.99,41.759998,,2013-01-11 17:43:00,
2013-01-11 12:53:00,43.0,43.0,-100.00,SSE,157,5.0,-999.0,98,0.01,,,-99.99,41.759998,,2013-01-11 17:53:00,
2013-01-11 15:00:00,49.0,48.0,-100.00,SW,225,10.0,-999.0,98,-99.99,,,-99.99,27.840000,,2013-01-11 20:00:00,
2013-01-11 15:43:00,49.0,48.0,-100.00,SW,225,10.0,-999.0,98,-99.99,,,-99.99,27.840000,,2013-01-11 20:43:00,
2013-01-11 15:53:00,49.0,48.0,-100.00,SW,225,10.0,-999.0,98,-99.99,,,-99.99,27.840000,,2013-01-11 20:53:00,
2013-01-11 16:00:00,47.0,47.0,-100.00,SW,225,12.0,-999.0,99,-99.99,,,-99.99,22.040001,,2013-01-11 21:00:00,
2013-01-11 16:43:00,47.0,47.0,-100.00,SW,225,12.0,-999.0,99,-99.99,,,-99.99,22.040001,,2013-01-11 21:43:00,
2013-01-11 16:53:00,47.0,47.0,-100.00,SW,225,12.0,-999.0,99,-99.99,,,-99.99,22.040001,,2013-01-11 21:53:00,
2013-01-11 17:00:00,46.0,46.0,-100.00,SW,225,12.0,-999.0,98,-99.99,,,-99.99,10.440000,,2013-01-11 22:00:00,
2013-01-11 17:43:00,46.0,46.0,-100.00,SW,225,12.0,-999.0,98,-99.99,,,-99.99,10.440000,,2013-01-11 22:43:00,
2013-01-11 17:53:00,46.0,46.0,-100.00,SW,225,12.0,-999.0,98,-99.99,,,-99.99,10.440000,,2013-01-11 22:53:00,
2013-01-11 18:00:00,46.0,45.0,-100.00,SW,225,12.0,-999.0,98,-99.99,,,-99.99,1.160000,,2013-01-11 23:00:00,
2013-01-11 18:43:00,46.0,45.0,-100.00,SW,225,12.0,-999.0,98,-99.99,,,-99.99,1.160000,,2013-01-11 23:43:00,
2013-01-11 18:54:00,46.0,45.0,-100.00,SW,225,12.0,-999.0,98,-99.99,,,-99.99,1.160000,,2013-01-11 23:54:00,
2013-01-11 19:00:00,45.0,45.0,-100.00,SW,225,6.0,-999.0,98,-99.99,,,-99.99,0.000000,,2013-01-12 00:00:00,
2013-01-11 19:43:00,45.0,45.0,-100.00,SW,225,6.0,-999.0,98,-99.99,,,-99.99,0.000000,,2013-01-12 00:43:00,
2013-01-11 19:53:00,45.0,45.0,-100.00,SW,225,6.0,-999.0,98,-99.99,,,-99.99,0.000000,,2013-01-12 00:53:00,
2013-01-11 22:00:00,45.0,44.0,-100.00,South,180,1.0,-999.0,97,-99.99,,,-99.99,0.000000,,2013-01-12 03:00:00,
2013-01-11 22:33:00,45.0,44.0,-100.00,South,180,1.0,-999.0,97,-99.99,,,-99.99,0.000000,,2013-01-12 03:33:00,
2013-01-11 22:43:00,45.0,44.0,-100.00,South,180,1.0,-999.0,97,-99.99,,,-99.99,0.000000,,2013-01-12 03:43:00,
2013-01-11 22:53:00,45.0,44.0,-100.00,South,180,1.0,-999.0,97,-99.99,,,-99.99,0.000000,,2013-01-12 03:53:00,
2013-01-11 23:00:00,43.0,42.0,-100.00,SSE,157,1.0,-999.0,97,-99.99,,,-99.99,0.000000,,2013-01-12 04:00:00,
2013-01-11 23:33:00,43.0,42.0,-100.00,SSE,157,1.0,-999.0,97,-99.99,,,-99.99,0.000000,,2013-01-12 04:33:00,
2013-01-11 23:43:00,43.0,42.0,-100.00,SSE,157,1.0,-999.0,97,-99.99,,,-99.99,0.000000,,2013-01-12 04:43:00,
2013-01-11 23:52:00,43.0,42.0,-100.00,SSE,157,1.0,-999.0,97,-99.99,,,-99.99,0.000000,,2013-01-12 04:52:00,